Archival Weather

Randolph Afb

Universal City, Texas (KRND)

Report from: Monday, September 26, 2022 11:55 AM CDT
Current time: Saturday, February 4, 2023 9:52 PM CST

Current weather
Weather history
Weather forecast

Temperature31.5°C (88.7°F)
Heat index29.8°C (85.7°F)
Dew point9.1°C (48.4°F)
Winds 15 kts (7.7 m/s, 17.3 mph) Northeast (40°)
Wind gusts 19 kts (9.8 m/s, 21.9 mph)
Visibility10 mi. (16.1 km)
Clouds Sky clear
Altimeter30.07 in.Hg (1018 mB)
Relative humidity25 %
Density altitude1,885 ft. (574 m)
Sea-level pressure101.7 kPa (1017 mB, 30.04 in.Hg)
Remarks Fully automated report
Automated weather observing station with precipitation discriminator
Flight conditions Visual Meteorological Conditions
Raw dataKRND 261655Z AUTO 04015G19KT 10SM CLR 32/09 A3007 RMK AO2 SLP174 T03150091
An unhandled exception has occurred. See browser dev tools for details. Reload 🗙